nws-alerts: Checking more than four warning/county codes can delay the loading of your pages. You should use a cron job to get the data.
EllijayWeather Station Historical Data
Daily Summary for March 11, 2019 Units:  English    Metric   Both
Daily Weekly Monthly Yearly Custom
  High: Low: Average:
Temperature: 57.4 °F 41.9 °F 49 °F
Dew Point: 52.0 °F 41.0 °F 47.2 °F
Humidity: 99% 69% 94%
Wind Speed: 2.9mph 0.0mph 0mph
Wind Gust: 3.0mph - -
Wind- - NW
Pressure: 30.34 in 30.22 in -
Precipitation: 0.11 in    
Historical Graphs
 
 
Tabular Data for March 11, 2019
Time Temperature Dew Point Pressure Wind Wind Speed Wind Gust Humidity Rainfall Rate (Hourly) solar
00:04 48.7 °F 47.7 °F 30.22 in Calm     96% 0.00 in meteobridge W/m2
00:09 48.6 °F 47.5 °F 30.23 in Calm     96% 0.00 in meteobridge W/m2
00:14 48.6 °F 47.7 °F 30.23 in Calm     97% 0.00 in meteobridge W/m2
00:19 48.4 °F 47.3 °F 30.23 in Calm     96% 0.00 in meteobridge W/m2
00:24 48.4 °F 47.3 °F 30.23 in Calm     96% 0.00 in meteobridge W/m2
00:29 48.0 °F 47.1 °F 30.23 in Calm     97% 0.00 in meteobridge W/m2
00:34 48.0 °F 47.1 °F 30.23 in Calm     97% 0.00 in meteobridge W/m2
00:39 48.0 °F 47.1 °F 30.23 in Calm     97% 0.00 in meteobridge W/m2
00:44 48.0 °F 47.1 °F 30.23 in Calm     97% 0.00 in meteobridge W/m2
00:49 48.0 °F 47.1 °F 30.24 in Calm     97% 0.00 in meteobridge W/m2
00:54 48.0 °F 47.1 °F 30.23 in Calm     97% 0.00 in meteobridge W/m2
00:59 47.8 °F 46.9 °F 30.23 in Calm     97% 0.00 in meteobridge W/m2
01:04 47.8 °F 46.9 °F 30.23 in Calm     97% 0.00 in meteobridge W/m2
01:09 47.8 °F 46.9 °F 30.23 in Calm     97% 0.00 in meteobridge W/m2
01:14 47.7 °F 46.9 °F 30.23 in Calm     97% 0.00 in meteobridge W/m2
01:19 47.7 °F 46.9 °F 30.23 in Calm     97% 0.00 in meteobridge W/m2
01:24 47.5 °F 46.8 °F 30.23 in Calm     97% 0.00 in meteobridge W/m2
01:29 47.5 °F 46.8 °F 30.23 in Calm     97% 0.00 in meteobridge W/m2
01:34 47.5 °F 46.8 °F 30.22 in Calm     97% 0.00 in meteobridge W/m2
01:39 47.5 °F 46.8 °F 30.22 in Calm     97% 0.00 in meteobridge W/m2
01:44 47.5 °F 46.8 °F 30.22 in Calm     97% 0.00 in meteobridge W/m2
01:49 47.3 °F 46.6 °F 30.22 in Calm     97% 0.00 in meteobridge W/m2
01:54 47.1 °F 46.4 °F 30.23 in Calm     97% 0.00 in meteobridge W/m2
01:59 47.1 °F 46.4 °F 30.23 in Calm     97% 0.00 in meteobridge W/m2
02:04 47.1 °F 46.4 °F 30.23 in Calm     97% 0.00 in meteobridge W/m2
02:09 47.1 °F 46.4 °F 30.23 in Calm     97% 0.00 in meteobridge W/m2
02:14 47.1 °F 46.6 °F 30.23 in Calm     98% 0.00 in meteobridge W/m2
02:19 47.1 °F 46.6 °F 30.23 in Calm     98% 0.00 in meteobridge W/m2
02:24 47.1 °F 46.6 °F 30.23 in Calm     98% 0.00 in meteobridge W/m2
02:29 46.9 °F 46.4 °F 30.23 in Calm     98% 0.00 in meteobridge W/m2
02:34 46.9 °F 46.4 °F 30.24 in Calm     98% 0.00 in meteobridge W/m2
02:39 46.9 °F 46.2 °F 30.24 in Calm     97% 0.00 in meteobridge W/m2
02:44 46.9 °F 46.2 °F 30.24 in Calm     97% 0.00 in meteobridge W/m2
02:49 46.9 °F 46.2 °F 30.24 in Calm     97% 0.00 in meteobridge W/m2
02:54 46.8 °F 46.0 °F 30.24 in Calm     97% 0.00 in meteobridge W/m2
02:59 46.9 °F 46.4 °F 30.24 in Calm     98% 0.00 in meteobridge W/m2
03:04 46.9 °F 46.4 °F 30.24 in Calm     98% 0.00 in meteobridge W/m2
03:09 46.9 °F 46.4 °F 30.24 in Calm     98% 0.00 in meteobridge W/m2
03:14 46.9 °F 46.4 °F 30.24 in Calm     98% 0.00 in meteobridge W/m2
03:19 46.9 °F 46.4 °F 30.24 in Calm     98% 0.00 in meteobridge W/m2
03:24 47.1 °F 46.6 °F 30.24 in Calm     98% 0.00 in meteobridge W/m2
03:29 47.1 °F 46.6 °F 30.24 in Calm     98% 0.00 in meteobridge W/m2
03:34 47.1 °F 46.6 °F 30.24 in Calm     98% 0.00 in meteobridge W/m2
03:39 47.1 °F 46.6 °F 30.24 in Calm     98% 0.00 in meteobridge W/m2
03:44 47.1 °F 46.6 °F 30.24 in Calm     98% 0.00 in meteobridge W/m2
03:49 47.1 °F 46.6 °F 30.24 in Calm     98% 0.00 in meteobridge W/m2
03:54 47.1 °F 46.6 °F 30.24 in Calm     98% 0.00 in meteobridge W/m2
03:59 47.1 °F 46.6 °F 30.24 in Calm     98% 0.00 in meteobridge W/m2
04:04 46.9 °F 46.4 °F 30.23 in Calm     98% 0.00 in meteobridge W/m2
04:09 46.9 °F 46.4 °F 30.23 in Calm     98% 0.00 in meteobridge W/m2
04:14 46.9 °F 46.4 °F 30.23 in Calm     98% 0.00 in meteobridge W/m2
04:19 46.9 °F 46.2 °F 30.23 in Calm     97% 0.00 in meteobridge W/m2
04:24 46.8 °F 46.2 °F 30.23 in Calm     98% 0.00 in meteobridge W/m2
04:29 46.8 °F 46.2 °F 30.23 in Calm     98% 0.00 in meteobridge W/m2
04:34 46.8 °F 46.2 °F 30.23 in Calm     98% 0.00 in meteobridge W/m2
04:39 46.8 °F 46.2 °F 30.23 in Calm     98% 0.00 in meteobridge W/m2
04:44 46.8 °F 46.2 °F 30.23 in Calm     98% 0.00 in meteobridge W/m2
04:49 46.8 °F 46.2 °F 30.22 in Calm     98% 0.00 in meteobridge W/m2
04:54 46.8 °F 46.2 °F 30.22 in Calm     98% 0.00 in meteobridge W/m2
04:59 46.9 °F 46.4 °F 30.22 in Calm     98% 0.00 in meteobridge W/m2
05:04 46.9 °F 46.4 °F 30.22 in Calm     98% 0.00 in meteobridge W/m2
05:09 46.8 °F 46.2 °F 30.22 in Calm     98% 0.00 in meteobridge W/m2
05:14 46.9 °F 46.4 °F 30.23 in Calm     98% 0.00 in meteobridge W/m2
05:19 46.9 °F 46.4 °F 30.24 in Calm     98% 0.00 in meteobridge W/m2
05:24 46.8 °F 46.0 °F 30.24 in Calm     97% 0.00 in meteobridge W/m2
05:29 46.8 °F 46.0 °F 30.24 in Calm     97% 0.00 in meteobridge W/m2
05:34 46.6 °F 45.9 °F 30.24 in Calm     97% 0.00 in meteobridge W/m2
05:39 46.6 °F 45.9 °F 30.24 in Calm     97% 0.00 in meteobridge W/m2
05:44 46.4 °F 45.7 °F 30.24 in Calm     97% 0.00 in meteobridge W/m2
05:49 46.4 °F 45.9 °F 30.24 in Calm     98% 0.00 in meteobridge W/m2
05:54 46.2 °F 45.7 °F 30.24 in Calm     98% 0.00 in meteobridge W/m2
05:59 46.2 °F 45.7 °F 30.24 in Calm     98% 0.00 in meteobridge W/m2
06:04 46.2 °F 45.7 °F 30.25 in Calm     98% 0.00 in meteobridge W/m2
06:09 46.2 °F 45.7 °F 30.25 in Calm     98% 0.00 in meteobridge W/m2
06:14 46.2 °F 45.7 °F 30.25 in Calm     98% 0.00 in meteobridge W/m2
06:19 46.0 °F 45.5 °F 30.25 in Calm     98% 0.00 in meteobridge W/m2
06:24 46.0 °F 45.5 °F 30.25 in Calm     98% 0.00 in meteobridge W/m2
06:29 46.0 °F 45.5 °F 30.25 in Calm     98% 0.00 in meteobridge W/m2
06:34 46.0 °F 45.5 °F 30.25 in Calm     98% 0.00 in meteobridge W/m2
06:38 45.9 °F 45.3 °F 30.25 in Calm     98% 0.00 in meteobridge W/m2
06:44 45.7 °F 45.0 °F 30.24 in Calm     97% 0.00 in meteobridge W/m2
06:49 45.7 °F 45.0 °F 30.25 in Calm     97% 0.00 in meteobridge W/m2
06:54 45.3 °F 44.8 °F 30.26 in Calm     98% 0.00 in meteobridge W/m2
06:59 45.3 °F 44.6 °F 30.25 in Calm     97% 0.00 in meteobridge W/m2
07:04 45.1 °F 44.4 °F 30.26 in Calm     97% 0.00 in meteobridge W/m2
07:09 45.1 °F 44.4 °F 30.26 in Calm     97% 0.00 in meteobridge W/m2
07:14 45.0 °F 44.4 °F 30.26 in Calm     98% 0.00 in meteobridge W/m2
07:19 45.0 °F 44.2 °F 30.25 in Calm     97% 0.00 in meteobridge W/m2
07:24 44.8 °F 44.1 °F 30.25 in Calm     97% 0.00 in meteobridge W/m2
07:29 44.4 °F 43.7 °F 30.24 in Calm     97% 0.00 in meteobridge W/m2
07:34 44.4 °F 43.7 °F 30.25 in Calm     97% 0.00 in meteobridge W/m2
07:39 44.4 °F 43.9 °F 30.26 in Calm     98% 0.00 in meteobridge W/m2
07:44 44.2 °F 43.5 °F 30.26 in Calm     97% 0.00 in meteobridge W/m2
07:49 44.2 °F 43.5 °F 30.26 in Calm     97% 0.00 in meteobridge W/m2
07:54 44.1 °F 43.3 °F 30.26 in Calm     97% 0.00 in meteobridge W/m2
07:59 44.1 °F 43.3 °F 30.26 in Calm     97% 0.00 in meteobridge W/m2
08:04 44.1 °F 43.3 °F 30.26 in Calm     97% 0.00 in meteobridge W/m2
08:09 43.9 °F 43.3 °F 30.26 in Calm     98% 0.00 in meteobridge W/m2
08:14 43.9 °F 43.3 °F 30.26 in Calm     98% 0.00 in meteobridge W/m2
08:19 43.9 °F 43.3 °F 30.26 in Calm     98% 0.00 in meteobridge W/m2
08:24 43.9 °F 43.3 °F 30.26 in Calm     98% 0.00 in meteobridge W/m2
08:29 43.9 °F 43.3 °F 30.25 in Calm     98% 0.00 in meteobridge W/m2
08:34 43.9 °F 43.3 °F 30.26 in Calm     98% 0.00 in meteobridge W/m2
08:39 44.1 °F 43.5 °F 30.26 in Calm     98% 0.00 in meteobridge W/m2
08:44 44.1 °F 43.5 °F 30.25 in Calm     98% 0.00 in meteobridge W/m2
08:49 44.2 °F 43.7 °F 30.26 in Calm     98% 0.00 in meteobridge W/m2
08:54 44.4 °F 44.2 °F 30.26 in Calm     99% 0.00 in meteobridge W/m2
08:59 44.8 °F 44.6 °F 30.26 in Calm     99% 0.00 in meteobridge W/m2
09:04 45.0 °F 44.8 °F 30.26 in Calm     99% 0.00 in meteobridge W/m2
09:09 45.1 °F 45.0 °F 30.27 in Calm   1.0 mph 99% 0.00 in meteobridge W/m2
09:14 45.5 °F 45.3 °F 30.27 in Calm     99% 0.00 in meteobridge W/m2
09:19 45.7 °F 45.5 °F 30.26 in Calm     99% 0.00 in meteobridge W/m2
09:24 46.0 °F 45.9 °F 30.26 in Calm     99% 0.00 in meteobridge W/m2
09:29 46.2 °F 46.0 °F 30.27 in Calm     99% 0.00 in meteobridge W/m2
09:34 46.6 °F 46.4 °F 30.27 in Calm     99% 0.00 in meteobridge W/m2
09:39 46.6 °F 46.4 °F 30.27 in Calm     99% 0.00 in meteobridge W/m2
09:44 46.9 °F 46.8 °F 30.28 in Calm     99% 0.00 in meteobridge W/m2
09:49 46.9 °F 46.8 °F 30.28 in Calm     99% 0.00 in meteobridge W/m2
09:54 47.1 °F 46.9 °F 30.29 in Calm     99% 0.00 in meteobridge W/m2
09:59 47.7 °F 47.5 °F 30.29 in Calm     99% 0.00 in meteobridge W/m2
10:04 47.5 °F 47.3 °F 30.29 in Calm     99% 0.00 in meteobridge W/m2
10:09 47.7 °F 47.5 °F 30.28 in Calm     99% 0.00 in meteobridge W/m2
10:14 47.7 °F 47.5 °F 30.29 in Calm     99% 0.00 in meteobridge W/m2
10:19 48.0 °F 47.8 °F 30.29 in Calm     99% 0.00 in meteobridge W/m2
10:24 48.0 °F 47.8 °F 30.29 in Calm     99% 0.00 in meteobridge W/m2
10:29 48.2 °F 47.7 °F 30.29 in Calm   2.0 mph 98% 0.00 in meteobridge W/m2
10:34 48.2 °F 47.1 °F 30.29 in Calm     96% 0.00 in meteobridge W/m2
10:39 48.4 °F 47.5 °F 30.29 in Calm     97% 0.00 in meteobridge W/m2
10:44 48.6 °F 48.0 °F 30.29 in Calm     98% 0.00 in meteobridge W/m2
10:49 48.6 °F 48.0 °F 30.29 in Calm     98% 0.00 in meteobridge W/m2
10:54 48.9 °F 48.4 °F 30.29 in Calm     98% 0.00 in meteobridge W/m2
10:59 49.1 °F 48.6 °F 30.30 in Calm     98% 0.00 in meteobridge W/m2
11:04 49.5 °F 49.3 °F 30.30 in Calm     99% 0.00 in meteobridge W/m2
11:09 49.6 °F 49.1 °F 30.30 in Calm     98% 0.00 in meteobridge W/m2
11:14 50.0 °F 49.6 °F 30.31 in Calm   1.0 mph 99% 0.00 in meteobridge W/m2
11:19 50.4 °F 50.0 °F 30.31 in Calm     99% 0.00 in meteobridge W/m2
11:24 50.5 °F 50.0 °F 30.31 in Calm     98% 0.00 in meteobridge W/m2
11:29 50.7 °F 50.2 °F 30.31 in Calm     98% 0.00 in meteobridge W/m2
11:34 51.1 °F 50.2 °F 30.32 in Calm     97% 0.00 in meteobridge W/m2
11:39 51.3 °F 50.7 °F 30.32 in Calm     98% 0.00 in meteobridge W/m2
11:44 51.4 °F 50.9 °F 30.32 in Calm     98% 0.00 in meteobridge W/m2
11:49 51.8 °F 51.3 °F 30.33 in Calm     98% 0.00 in meteobridge W/m2
11:54 52.0 °F 50.4 °F 30.32 in Calm     94% 0.00 in meteobridge W/m2
11:59 52.3 °F 51.3 °F 30.32 in Calm     96% 0.00 in meteobridge W/m2
12:04 52.5 °F 49.6 °F 30.32 in Calm     90% 0.00 in meteobridge W/m2
12:09 52.9 °F 50.5 °F 30.32 in Calm   1.0 mph 92% 0.00 in meteobridge W/m2
12:14 53.1 °F 49.3 °F 30.32 in Calm     87% 0.00 in meteobridge W/m2
12:19 53.4 °F 50.0 °F 30.32 in Calm   1.0 mph 88% 0.00 in meteobridge W/m2
12:24 54.1 °F 45.7 °F 30.32 in Calm   1.0 mph 73% 0.00 in meteobridge W/m2
12:29 54.9 °F 46.8 °F 30.31 in Calm     74% 0.00 in meteobridge W/m2
12:34 55.4 °F 46.6 °F 30.31 in Calm     72% 0.00 in meteobridge W/m2
12:39 55.8 °F 47.3 °F 30.32 in Calm     73% 0.00 in meteobridge W/m2
12:44 55.9 °F 45.9 °F 30.30 in Calm     69% 0.00 in meteobridge W/m2
12:49 56.3 °F 46.6 °F 30.30 in Calm     70% 0.00 in meteobridge W/m2
12:54 56.5 °F 48.9 °F 30.30 in Calm     76% 0.00 in meteobridge W/m2
12:59 56.7 °F 49.5 °F 30.29 in Calm     77% 0.00 in meteobridge W/m2
13:04 56.8 °F 48.6 °F 30.29 in Calm     74% 0.00 in meteobridge W/m2
13:09 57.0 °F 49.8 °F 30.29 in Calm     77% 0.00 in meteobridge W/m2
13:14 57.2 °F 50.7 °F 30.30 in Calm     79% 0.00 in meteobridge W/m2
13:19 57.2 °F 47.5 °F 30.29 in Calm     70% 0.00 in meteobridge W/m2
13:24 57.4 °F 50.9 °F 30.30 in Calm     79% 0.00 in meteobridge W/m2
13:29 57.2 °F 49.6 °F 30.30 in Calm     76% 0.00 in meteobridge W/m2
13:34 57.2 °F 49.3 °F 30.31 in Calm     75% 0.00 in meteobridge W/m2
13:39 57.2 °F 50.4 °F 30.32 in Calm     78% 0.00 in meteobridge W/m2
13:44 57.2 °F 50.7 °F 30.32 in Calm     79% 0.00 in meteobridge W/m2
13:49 56.8 °F 50.4 °F 30.33 in Calm     79% 0.00 in meteobridge W/m2
13:54 56.7 °F 48.7 °F 30.33 in Calm   1.0 mph 75% 0.00 in meteobridge W/m2
13:59 56.5 °F 47.1 °F 30.33 in Calm     71% 0.00 in meteobridge W/m2
14:04 56.1 °F 47.7 °F 30.32 in WSW 2.9 mph 3.0 mph 73% 0.00 in meteobridge W/m2
14:09 55.8 °F 47.3 °F 30.32 in Calm   1.0 mph 73% 0.01 in meteobridge W/m2
14:14 54.7 °F 49.3 °F 30.33 in Calm     82% 0.02 in meteobridge W/m2
14:19 53.4 °F 47.7 °F 30.33 in Calm   3.0 mph 81% 0.04 in meteobridge W/m2
14:24 52.7 °F 48.6 °F 30.32 in Calm     86% 0.06 in meteobridge W/m2
14:29 52.2 °F 48.7 °F 30.31 in Calm     88% 0.08 in meteobridge W/m2
14:34 51.4 °F 48.9 °F 30.30 in Calm     91% 0.09 in meteobridge W/m2
14:39 51.3 °F 49.3 °F 30.29 in Calm     93% 0.09 in meteobridge W/m2
14:44 51.3 °F 49.6 °F 30.29 in Calm     94% 0.10 in meteobridge W/m2
14:49 51.3 °F 49.6 °F 30.28 in Calm   1.0 mph 94% 0.10 in meteobridge W/m2
14:54 51.1 °F 49.1 °F 30.28 in Calm     93% 0.11 in meteobridge W/m2
14:59 51.1 °F 49.5 °F 30.29 in Calm     94% 0.11 in meteobridge W/m2
15:04 51.3 °F 49.8 °F 30.29 in Calm     95% 0.11 in meteobridge W/m2
15:09 51.1 °F 49.5 °F 30.28 in Calm     94% 0.10 in meteobridge W/m2
15:14 51.3 °F 49.6 °F 30.28 in Calm     94% 0.09 in meteobridge W/m2
15:19 51.3 °F 49.6 °F 30.28 in Calm     94% 0.07 in meteobridge W/m2
15:24 51.3 °F 49.8 °F 30.28 in Calm     95% 0.05 in meteobridge W/m2
15:29 51.4 °F 50.0 °F 30.28 in Calm     95% 0.03 in meteobridge W/m2
15:34 51.4 °F 50.0 °F 30.27 in Calm     95% 0.02 in meteobridge W/m2
15:39 51.6 °F 50.0 °F 30.27 in Calm     94% 0.02 in meteobridge W/m2
15:44 51.8 °F 49.8 °F 30.28 in Calm     93% 0.01 in meteobridge W/m2
15:49 52.0 °F 50.4 °F 30.28 in Calm     94% 0.01 in meteobridge W/m2
15:54 52.2 °F 50.5 °F 30.28 in Calm     94% 0.00 in meteobridge W/m2
15:59 52.3 °F 50.7 °F 30.28 in Calm     94% 0.00 in meteobridge W/m2
16:04 52.5 °F 51.1 °F 30.28 in Calm     95% 0.00 in meteobridge W/m2
16:09 52.5 °F 50.5 °F 30.28 in Calm   1.0 mph 93% 0.00 in meteobridge W/m2
16:14 52.5 °F 50.9 °F 30.28 in NNW 0.9 mph 1.0 mph 94% 0.00 in meteobridge W/m2
16:19 52.7 °F 50.7 °F 30.29 in Calm     93% 0.00 in meteobridge W/m2
16:24 52.7 °F 51.1 °F 30.28 in Calm     94% 0.00 in meteobridge W/m2
16:29 52.5 °F 50.2 °F 30.29 in Calm     92% 0.00 in meteobridge W/m2
16:34 52.5 °F 50.5 °F 30.29 in Calm     93% 0.00 in meteobridge W/m2
16:39 52.7 °F 50.7 °F 30.28 in Calm     93% 0.00 in meteobridge W/m2
16:44 52.9 °F 50.9 °F 30.28 in Calm     93% 0.00 in meteobridge W/m2
16:49 52.9 °F 50.4 °F 30.28 in Calm     91% 0.00 in meteobridge W/m2
16:54 53.1 °F 51.1 °F 30.28 in Calm     93% 0.00 in meteobridge W/m2
16:59 53.2 °F 50.7 °F 30.27 in Calm     91% 0.00 in meteobridge W/m2
17:04 53.4 °F 51.1 °F 30.27 in Calm     92% 0.00 in meteobridge W/m2
17:09 53.4 °F 50.9 °F 30.28 in Calm     91% 0.00 in meteobridge W/m2
17:14 53.8 °F 51.3 °F 30.28 in Calm     91% 0.00 in meteobridge W/m2
17:19 54.0 °F 51.1 °F 30.27 in Calm     90% 0.00 in meteobridge W/m2
17:24 54.1 °F 51.6 °F 30.27 in Calm     91% 0.00 in meteobridge W/m2
17:29 54.3 °F 50.2 °F 30.27 in Calm     86% 0.00 in meteobridge W/m2
17:34 54.3 °F 50.9 °F 30.27 in Calm     88% 0.00 in meteobridge W/m2
17:39 54.5 °F 50.7 °F 30.26 in Calm     87% 0.00 in meteobridge W/m2
17:44 54.7 °F 50.5 °F 30.27 in Calm     86% 0.00 in meteobridge W/m2
17:49 54.9 °F 49.5 °F 30.27 in Calm     82% 0.00 in meteobridge W/m2
17:54 54.9 °F 50.2 °F 30.27 in Calm     84% 0.00 in meteobridge W/m2
17:59 55.0 °F 50.5 °F 30.28 in Calm     85% 0.00 in meteobridge W/m2
18:04 55.0 °F 50.9 °F 30.27 in Calm     86% 0.00 in meteobridge W/m2
18:09 55.2 °F 51.4 °F 30.27 in Calm   1.0 mph 87% 0.00 in meteobridge W/m2
18:14 55.2 °F 51.1 °F 30.27 in Calm   2.0 mph 86% 0.00 in meteobridge W/m2
18:19 55.2 °F 50.7 °F 30.27 in Calm     85% 0.00 in meteobridge W/m2
18:24 55.4 °F 52.0 °F 30.26 in Calm     88% 0.00 in meteobridge W/m2
18:29 55.2 °F 51.8 °F 30.27 in Calm     88% 0.00 in meteobridge W/m2
18:34 55.2 °F 51.1 °F 30.27 in Calm     86% 0.00 in meteobridge W/m2
18:39 55.2 °F 51.8 °F 30.27 in Calm     88% 0.00 in meteobridge W/m2
18:44 54.9 °F 50.7 °F 30.27 in Calm     86% 0.00 in meteobridge W/m2
18:49 54.9 °F 51.6 °F 30.27 in Calm     89% 0.00 in meteobridge W/m2
18:54 54.5 °F 51.3 °F 30.27 in Calm     89% 0.00 in meteobridge W/m2
18:59 54.3 °F 51.4 °F 30.26 in Calm     90% 0.00 in meteobridge W/m2
19:04 54.1 °F 50.9 °F 30.26 in Calm     89% 0.00 in meteobridge W/m2
19:09 53.8 °F 50.0 °F 30.26 in Calm     87% 0.00 in meteobridge W/m2
19:14 53.8 °F 50.4 °F 30.26 in Calm     88% 0.00 in meteobridge W/m2
19:19 53.4 °F 50.2 °F 30.27 in Calm     89% 0.00 in meteobridge W/m2
19:24 53.1 °F 50.2 °F 30.27 in Calm     90% 0.00 in meteobridge W/m2
19:29 52.9 °F 49.6 °F 30.27 in NNW 0.9 mph 2.0 mph 89% 0.00 in meteobridge W/m2
19:34 52.5 °F 50.0 °F 30.27 in Calm     91% 0.00 in meteobridge W/m2
19:39 52.3 °F 49.5 °F 30.27 in Calm     90% 0.00 in meteobridge W/m2
19:44 52.0 °F 49.1 °F 30.27 in Calm     90% 0.00 in meteobridge W/m2
19:49 51.6 °F 48.7 °F 30.28 in Calm     90% 0.00 in meteobridge W/m2
19:54 51.3 °F 48.4 °F 30.27 in Calm     90% 0.00 in meteobridge W/m2
19:59 51.1 °F 48.6 °F 30.28 in Calm     91% 0.00 in meteobridge W/m2
20:04 50.7 °F 48.2 °F 30.28 in Calm     91% 0.00 in meteobridge W/m2
20:09 50.4 °F 48.2 °F 30.28 in Calm     92% 0.00 in meteobridge W/m2
20:14 50.2 °F 48.2 °F 30.28 in Calm     93% 0.00 in meteobridge W/m2
20:19 49.8 °F 47.8 °F 30.28 in Calm     93% 0.00 in meteobridge W/m2
20:24 49.6 °F 47.7 °F 30.28 in Calm     93% 0.00 in meteobridge W/m2
20:29 49.3 °F 47.3 °F 30.28 in Calm     93% 0.00 in meteobridge W/m2
20:34 49.1 °F 47.1 °F 30.28 in Calm     93% 0.00 in meteobridge W/m2
20:39 48.9 °F 47.3 °F 30.28 in Calm     94% 0.00 in meteobridge W/m2
20:44 48.7 °F 47.1 °F 30.29 in Calm     94% 0.00 in meteobridge W/m2
20:49 48.6 °F 46.6 °F 30.29 in Calm     93% 0.00 in meteobridge W/m2
20:54 48.2 °F 46.6 °F 30.29 in Calm     94% 0.00 in meteobridge W/m2
20:59 47.8 °F 46.2 °F 30.29 in Calm     94% 0.00 in meteobridge W/m2
21:04 47.7 °F 46.0 °F 30.29 in Calm     94% 0.00 in meteobridge W/m2
21:09 47.5 °F 45.9 °F 30.29 in Calm     94% 0.00 in meteobridge W/m2
21:14 47.1 °F 45.5 °F 30.30 in Calm     94% 0.00 in meteobridge W/m2
21:19 46.9 °F 45.3 °F 30.30 in Calm     94% 0.00 in meteobridge W/m2
21:24 46.8 °F 45.1 °F 30.30 in Calm     94% 0.00 in meteobridge W/m2
21:29 46.6 °F 45.1 °F 30.31 in Calm     95% 0.00 in meteobridge W/m2
21:34 46.2 °F 44.8 °F 30.31 in Calm     95% 0.00 in meteobridge W/m2
21:39 46.0 °F 44.6 °F 30.31 in Calm     95% 0.00 in meteobridge W/m2
21:44 46.0 °F 44.6 °F 30.31 in Calm     95% 0.00 in meteobridge W/m2
21:49 45.9 °F 44.4 °F 30.31 in Calm     95% 0.00 in meteobridge W/m2
21:54 45.7 °F 44.4 °F 30.32 in Calm     95% 0.00 in meteobridge W/m2
21:59 45.5 °F 44.2 °F 30.32 in Calm     95% 0.00 in meteobridge W/m2
22:04 45.3 °F 44.2 °F 30.32 in Calm     96% 0.00 in meteobridge W/m2
22:09 45.1 °F 44.1 °F 30.32 in Calm     96% 0.00 in meteobridge W/m2
22:14 45.0 °F 43.7 °F 30.32 in Calm     95% 0.00 in meteobridge W/m2
22:19 44.8 °F 43.5 °F 30.32 in Calm     95% 0.00 in meteobridge W/m2
22:24 44.6 °F 43.5 °F 30.33 in Calm     96% 0.00 in meteobridge W/m2
22:29 44.4 °F 43.3 °F 30.33 in Calm     96% 0.00 in meteobridge W/m2
22:34 44.2 °F 43.2 °F 30.33 in Calm     96% 0.00 in meteobridge W/m2
22:39 44.2 °F 43.2 °F 30.33 in Calm     96% 0.00 in meteobridge W/m2
22:44 44.1 °F 43.0 °F 30.34 in Calm     96% 0.00 in meteobridge W/m2
22:49 43.9 °F 42.8 °F 30.34 in Calm     96% 0.00 in meteobridge W/m2
22:54 43.7 °F 42.6 °F 30.34 in Calm     96% 0.00 in meteobridge W/m2
22:59 43.5 °F 42.4 °F 30.34 in Calm     96% 0.00 in meteobridge W/m2
23:04 43.5 °F 42.4 °F 30.34 in Calm     96% 0.00 in meteobridge W/m2
23:09 43.3 °F 42.3 °F 30.34 in Calm     96% 0.00 in meteobridge W/m2
23:14 43.2 °F 42.1 °F 30.34 in Calm     96% 0.00 in meteobridge W/m2
23:19 43.0 °F 41.9 °F 30.34 in Calm     96% 0.00 in meteobridge W/m2
23:24 43.0 °F 41.9 °F 30.33 in Calm     96% 0.00 in meteobridge W/m2
23:29 42.6 °F 41.5 °F 30.33 in Calm     96% 0.00 in meteobridge W/m2
23:34 42.4 °F 41.4 °F 30.33 in Calm     96% 0.00 in meteobridge W/m2
23:39 42.4 °F 41.4 °F 30.33 in Calm     96% 0.00 in meteobridge W/m2
23:44 42.3 °F 41.2 °F 30.33 in Calm     96% 0.00 in meteobridge W/m2
23:49 42.3 °F 41.2 °F 30.33 in Calm     96% 0.00 in meteobridge W/m2
23:54 42.1 °F 41.0 °F 30.33 in Calm     96% 0.00 in meteobridge W/m2
23:59 41.9 °F 41.2 °F 30.33 in Calm     97% 0.00 in meteobridge W/m2
EllijayWeather
Compliments of Weather Underground - 2.5 mb